Archival Weather

Tokyo Intl

Tokyo, Japan (RJTT)

Report from: Sunday, March 19, 2023 7:00 AM JST
Current time: Monday, June 17, 2024 7:24 PM JST

Current weather – Weather history – Daily summaries
Weather forecast

Temperature8.0°C (46.4°F)
Wind chill5.2°C (41.4°F)
Dew point3.0°C (37.4°F)
Winds 9 kts (4.6 m/s, 10.4 mph) North-Northeast (20°)
Visibility6.2 mi. (10 km)
Clouds Few clouds 2,500 ft. (762 m)
Altimeter30.03 in.Hg (1017 mB)
Relative humidity71 %
Density altitude-855 ft. (-261 m)
Remarks No significant changes expected in the next two hours
Flight conditions Visual Meteorological Conditions
Raw dataRJTT 182200Z 02009KT 9999 FEW025 08/03 Q1017 NOSIG
An error has occurred. This application may no longer respond until reloaded. Reload 🗙